sensor_id;sensor_type;location;lat;lon;timestamp;pressure;altitude;pressure_sealevel;temperature;humidity
29371;BME280;16357;52.188;7.838;2023-09-19T00:01:43;99924.19;;;19.09;64.97
29371;BME280;16357;52.188;7.838;2023-09-19T00:04:12;99924.19;;;19.09;65.21
29371;BME280;16357;52.188;7.838;2023-09-19T00:06:41;99933.38;;;19.08;65.08
29371;BME280;16357;52.188;7.838;2023-09-19T00:09:09;99931.50;;;19.08;64.95
29371;BME280;16357;52.188;7.838;2023-09-19T00:11:37;99934.22;;;19.08;64.90
29371;BME280;16357;52.188;7.838;2023-09-19T00:14:04;99936.94;;;19.08;64.65
29371;BME280;16357;52.188;7.838;2023-09-19T00:16:35;99935.06;;;19.09;64.52
29371;BME280;16357;52.188;7.838;2023-09-19T00:19:02;99946.97;;;19.08;64.46
29371;BME280;16357;52.188;7.838;2023-09-19T00:21:31;99938.00;;;19.07;64.29
29371;BME280;16357;52.188;7.838;2023-09-19T00:23:58;99944.25;;;19.08;64.14
29371;BME280;16357;52.188;7.838;2023-09-19T00:26:24;99957.84;;;19.08;63.82
29371;BME280;16357;52.188;7.838;2023-09-19T00:28:53;99956.81;;;19.09;63.91
29371;BME280;16357;52.188;7.838;2023-09-19T00:31:20;99948.06;;;19.07;63.64
29371;BME280;16357;52.188;7.838;2023-09-19T00:33:51;99955.38;;;19.06;63.30
29371;BME280;16357;52.188;7.838;2023-09-19T00:36:19;99957.25;;;19.06;63.09
29371;BME280;16357;52.188;7.838;2023-09-19T00:38:46;99979.25;;;19.04;63.09
29371;BME280;16357;52.188;7.838;2023-09-19T00:41:13;99967.56;;;19.04;62.89
29371;BME280;16357;52.188;7.838;2023-09-19T00:43:39;99960.44;;;19.03;62.70
29371;BME280;16357;52.188;7.838;2023-09-19T00:46:06;99981.38;;;19.02;62.66
29371;BME280;16357;52.188;7.838;2023-09-19T00:48:40;99982.78;;;19.05;62.75
29371;BME280;16357;52.188;7.838;2023-09-19T00:51:10;99983.25;;;19.02;62.32
29371;BME280;16357;52.188;7.838;2023-09-19T00:53:37;99983.25;;;19.02;62.41
29371;BME280;16357;52.188;7.838;2023-09-19T00:56:05;99979.94;;;19.00;61.91
29371;BME280;16357;52.188;7.838;2023-09-19T00:58:34;99969.06;;;19.00;62.07
29371;BME280;16357;52.188;7.838;2023-09-19T01:01:01;99979.09;;;18.99;61.86
29371;BME280;16357;52.188;7.838;2023-09-19T01:03:30;99985.38;;;19.00;61.72
29371;BME280;16357;52.188;7.838;2023-09-19T01:05:56;99989.16;;;18.99;61.75
29371;BME280;16357;52.188;7.838;2023-09-19T01:08:23;99994.59;;;18.99;61.61
29371;BME280;16357;52.188;7.838;2023-09-19T01:11:01;99985.38;;;19.00;61.38
29371;BME280;16357;52.188;7.838;2023-09-19T01:13:47;99992.09;;;18.97;61.39
29371;BME280;16357;52.188;7.838;2023-09-19T01:19:35;100007.56;;;18.97;61.28
29371;BME280;16357;52.188;7.838;2023-09-19T01:22:32;100010.50;;;18.95;61.16
29371;BME280;16357;52.188;7.838;2023-09-19T01:25:19;100005.78;;;18.91;61.17
29371;BME280;16357;52.188;7.838;2023-09-19T01:28:07;100004.13;;;18.90;61.10
29371;BME280;16357;52.188;7.838;2023-09-19T01:30:40;100001.84;;;18.86;61.10
29371;BME280;16357;52.188;7.838;2023-09-19T01:33:10;100013.19;;;18.83;61.07
29371;BME280;16357;52.188;7.838;2023-09-19T01:35:38;100006.53;;;18.79;61.42
29371;BME280;16357;52.188;7.838;2023-09-19T01:38:06;100017.88;;;18.76;61.41
29371;BME280;16357;52.188;7.838;2023-09-19T01:40:42;100019.13;;;18.74;61.15
29371;BME280;16357;52.188;7.838;2023-09-19T01:43:50;100029.63;;;18.70;61.17
29371;BME280;16357;52.188;7.838;2023-09-19T01:46:24;100028.41;;;18.66;61.30
29371;BME280;16357;52.188;7.838;2023-09-19T01:49:00;100028.88;;;18.63;61.20
29371;BME280;16357;52.188;7.838;2023-09-19T01:51:36;100034.75;;;18.60;61.45
29371;BME280;16357;52.188;7.838;2023-09-19T01:54:09;100032.72;;;18.55;61.27
29371;BME280;16357;52.188;7.838;2023-09-19T01:56:48;100033.16;;;18.52;61.38
29371;BME280;16357;52.188;7.838;2023-09-19T01:59:25;100034.44;;;18.50;61.56
29371;BME280;16357;52.188;7.838;2023-09-19T02:01:55;100033.22;;;18.46;61.65
29371;BME280;16357;52.188;7.838;2023-09-19T02:04:22;100038.09;;;18.43;61.84
29371;BME280;16357;52.188;7.838;2023-09-19T02:06:49;100037.47;;;18.41;62.11
29371;BME280;16357;52.188;7.838;2023-09-19T02:09:15;100035.22;;;18.38;61.71
29371;BME280;16357;52.188;7.838;2023-09-19T02:11:42;100035.22;;;18.38;61.86
29371;BME280;16357;52.188;7.838;2023-09-19T02:14:08;100042.75;;;18.36;62.19
29371;BME280;16357;52.188;7.838;2023-09-19T02:16:35;100033.78;;;18.36;62.06
29371;BME280;16357;52.188;7.838;2023-09-19T02:19:01;100045.47;;;18.36;61.88
29371;BME280;16357;52.188;7.838;2023-09-19T02:21:32;100037.53;;;18.35;61.93
29371;BME280;16357;52.188;7.838;2023-09-19T02:23:58;100041.31;;;18.34;61.90
29371;BME280;16357;52.188;7.838;2023-09-19T02:26:25;100038.81;;;18.32;61.76
29371;BME280;16357;52.188;7.838;2023-09-19T02:28:53;100035.50;;;18.30;61.33
29371;BME280;16357;52.188;7.838;2023-09-19T02:31:20;100048.69;;;18.27;61.42
29371;BME280;16357;52.188;7.838;2023-09-19T02:33:47;100053.13;;;18.21;61.60
29371;BME280;16357;52.188;7.838;2023-09-19T02:36:13;100051.94;;;18.17;61.48
29371;BME280;16357;52.188;7.838;2023-09-19T02:38:40;100054.47;;;18.12;61.78
29371;BME280;16357;52.188;7.838;2023-09-19T02:41:06;100057.03;;;18.07;61.66
29371;BME280;16357;52.188;7.838;2023-09-19T02:43:32;100053.09;;;18.03;61.35
29371;BME280;16357;52.188;7.838;2023-09-19T02:45:59;100058.34;;;17.97;62.24
29371;BME280;16357;52.188;7.838;2023-09-19T02:48:26;100054.63;;;17.92;62.13
29371;BME280;16357;52.188;7.838;2023-09-19T02:50:53;100064.28;;;17.88;62.39
29371;BME280;16357;52.188;7.838;2023-09-19T02:53:19;100066.59;;;17.84;62.34
29371;BME280;16357;52.188;7.838;2023-09-19T02:55:49;100070.56;;;17.82;62.21
29371;BME280;16357;52.188;7.838;2023-09-19T02:58:16;100071.19;;;17.77;62.68
29371;BME280;16357;52.188;7.838;2023-09-19T03:00:42;100075.19;;;17.74;62.75
29371;BME280;16357;52.188;7.838;2023-09-19T03:03:13;100080.22;;;17.71;62.42
29371;BME280;16357;52.188;7.838;2023-09-19T03:05:39;100085.28;;;17.67;62.65
29371;BME280;16357;52.188;7.838;2023-09-19T03:08:06;100078.59;;;17.63;62.88
29371;BME280;16357;52.188;7.838;2023-09-19T03:10:32;100074.44;;;17.61;62.66
29371;BME280;16357;52.188;7.838;2023-09-19T03:12:59;100082.41;;;17.55;62.70
29371;BME280;16357;52.188;7.838;2023-09-19T03:15:28;100079.31;;;17.52;62.83
29371;BME280;16357;52.188;7.838;2023-09-19T03:17:55;100073.50;;;17.48;62.80
29371;BME280;16357;52.188;7.838;2023-09-19T03:20:22;100074.97;;;17.44;63.14
29371;BME280;16357;52.188;7.838;2023-09-19T03:22:48;100080.84;;;17.41;62.61
29371;BME280;16357;52.188;7.838;2023-09-19T03:25:15;100087.53;;;17.39;63.19
29371;BME280;16357;52.188;7.838;2023-09-19T03:27:44;100099.41;;;17.38;63.03
29371;BME280;16357;52.188;7.838;2023-09-19T03:30:10;100089.63;;;17.37;63.14
29371;BME280;16357;52.188;7.838;2023-09-19T03:32:49;100097.97;;;17.35;62.99
29371;BME280;16357;52.188;7.838;2023-09-19T03:35:17;100092.97;;;17.32;62.65
29371;BME280;16357;52.188;7.838;2023-09-19T03:37:44;100090.50;;;17.30;62.64
29371;BME280;16357;52.188;7.838;2023-09-19T03:40:11;100090.09;;;17.27;62.64
29371;BME280;16357;52.188;7.838;2023-09-19T03:42:41;100086.97;;;17.23;62.68
29371;BME280;16357;52.188;7.838;2023-09-19T03:45:08;100090.97;;;17.21;62.66
29371;BME280;16357;52.188;7.838;2023-09-19T03:47:39;100096.81;;;17.18;62.68
29371;BME280;16357;52.188;7.838;2023-09-19T03:50:06;100093.47;;;17.16;62.78
29371;BME280;16357;52.188;7.838;2023-09-19T03:52:37;100093.72;;;17.14;62.78
29371;BME280;16357;52.188;7.838;2023-09-19T03:55:04;100093.91;;;17.13;62.84
29371;BME280;16357;52.188;7.838;2023-09-19T03:57:31;100084.34;;;17.10;62.72
29371;BME280;16357;52.188;7.838;2023-09-19T03:59:58;100089.97;;;17.08;62.78
29371;BME280;16357;52.188;7.838;2023-09-19T04:02:24;100086.66;;;17.06;63.04
29371;BME280;16357;52.188;7.838;2023-09-19T04:04:51;100090.63;;;17.04;62.80
29371;BME280;16357;52.188;7.838;2023-09-19T04:07:18;100104.38;;;17.02;63.11
29371;BME280;16357;52.188;7.838;2023-09-19T04:09:49;100105.44;;;17.01;62.67
29371;BME280;16357;52.188;7.838;2023-09-19T04:12:15;100109.41;;;16.99;62.86
29371;BME280;16357;52.188;7.838;2023-09-19T04:14:43;100114.00;;;16.98;62.98
29371;BME280;16357;52.188;7.838;2023-09-19T04:17:10;100107.97;;;16.96;62.67
29371;BME280;16357;52.188;7.838;2023-09-19T04:19:37;100105.25;;;16.96;62.68
29371;BME280;16357;52.188;7.838;2023-09-19T04:22:04;100118.78;;;16.96;62.82
29371;BME280;16357;52.188;7.838;2023-09-19T04:24:30;100116.09;;;16.96;62.64
29371;BME280;16357;52.188;7.838;2023-09-19T04:26:58;100121.50;;;16.96;62.71
29371;BME280;16357;52.188;7.838;2023-09-19T04:29:25;100126.94;;;16.96;62.71
29371;BME280;16357;52.188;7.838;2023-09-19T04:31:56;100116.09;;;16.96;62.74
29371;BME280;16357;52.188;7.838;2023-09-19T04:34:25;100110.66;;;16.96;62.80
29371;BME280;16357;52.188;7.838;2023-09-19T04:36:52;100129.00;;;16.94;62.19
29371;BME280;16357;52.188;7.838;2023-09-19T04:39:19;100132.78;;;16.93;62.57
29371;BME280;16357;52.188;7.838;2023-09-19T04:41:45;100132.97;;;16.92;62.09
29371;BME280;16357;52.188;7.838;2023-09-19T04:44:14;100135.06;;;16.89;61.76
29371;BME280;16357;52.188;7.838;2023-09-19T04:46:40;100127.34;;;16.86;61.93
29371;BME280;16357;52.188;7.838;2023-09-19T04:49:07;100131.31;;;16.84;61.90
29371;BME280;16357;52.188;7.838;2023-09-19T04:51:33;100122.81;;;16.80;61.79
29371;BME280;16357;52.188;7.838;2023-09-19T04:54:02;100133.19;;;16.77;61.85
29371;BME280;16357;52.188;7.838;2023-09-19T04:56:29;100129.25;;;16.73;61.95
29371;BME280;16357;52.188;7.838;2023-09-19T04:58:56;100138.81;;;16.68;61.75
29371;BME280;16357;52.188;7.838;2023-09-19T05:01:25;100142.16;;;16.64;61.93
29371;BME280;16357;52.188;7.838;2023-09-19T05:03:51;100155.31;;;16.60;61.56
29371;BME280;16357;52.188;7.838;2023-09-19T05:06:21;100171.97;;;16.57;61.81
29371;BME280;16357;52.188;7.838;2023-09-19T05:08:49;100166.97;;;16.54;62.36
29371;BME280;16357;52.188;7.838;2023-09-19T05:11:18;100163.00;;;16.50;61.81
29371;BME280;16357;52.188;7.838;2023-09-19T05:13:47;100175.91;;;16.48;61.93
29371;BME280;16357;52.188;7.838;2023-09-19T05:16:13;100184.47;;;16.45;62.03
29371;BME280;16357;52.188;7.838;2023-09-19T05:18:40;100189.28;;;16.43;62.72
29371;BME280;16357;52.188;7.838;2023-09-19T05:21:06;100194.06;;;16.41;62.72
29371;BME280;16357;52.188;7.838;2023-09-19T05:23:34;100201.56;;;16.39;62.38
29371;BME280;16357;52.188;7.838;2023-09-19T05:26:00;100187.38;;;16.37;62.04
29371;BME280;16357;52.188;7.838;2023-09-19T05:28:27;100190.09;;;16.37;62.31
29371;BME280;16357;52.188;7.838;2023-09-19T05:30:53;100184.91;;;16.35;61.89
29371;BME280;16357;52.188;7.838;2023-09-19T05:33:20;100195.94;;;16.34;62.07
29371;BME280;16357;52.188;7.838;2023-09-19T05:35:49;100195.94;;;16.34;61.68
29371;BME280;16357;52.188;7.838;2023-09-19T05:38:16;100190.72;;;16.32;61.70
29371;BME280;16357;52.188;7.838;2023-09-19T05:40:45;100197.19;;;16.31;61.78
29371;BME280;16357;52.188;7.838;2023-09-19T05:43:12;100195.28;;;16.32;62.04
29371;BME280;16357;52.188;7.838;2023-09-19T05:45:40;100206.13;;;16.32;62.20
29371;BME280;16357;52.188;7.838;2023-09-19T05:48:14;100202.16;;;16.34;61.76
29371;BME280;16357;52.188;7.838;2023-09-19T05:50:43;100200.28;;;16.35;61.98
29371;BME280;16357;52.188;7.838;2023-09-19T05:53:11;100191.16;;;16.36;61.25
29371;BME280;16357;52.188;7.838;2023-09-19T05:55:39;100193.63;;;16.37;61.23
29371;BME280;16357;52.188;7.838;2023-09-19T05:58:06;100196.13;;;16.39;61.32
29371;BME280;16357;52.188;7.838;2023-09-19T06:00:33;100190.53;;;16.40;61.06
29371;BME280;16357;52.188;7.838;2023-09-19T06:03:02;100193.00;;;16.42;61.04
29371;BME280;16357;52.188;7.838;2023-09-19T06:05:28;100188.22;;;16.44;61.23
29371;BME280;16357;52.188;7.838;2023-09-19T06:08:10;100190.50;;;16.47;60.88
29371;BME280;16357;52.188;7.838;2023-09-19T06:10:36;100198.44;;;16.49;60.19
29371;BME280;16357;52.188;7.838;2023-09-19T06:13:03;100203.63;;;16.50;60.54
29371;BME280;16357;52.188;7.838;2023-09-19T06:15:36;100202.38;;;16.53;60.90
29371;BME280;16357;52.188;7.838;2023-09-19T06:18:03;100203.63;;;16.57;60.40
29371;BME280;16357;52.188;7.838;2023-09-19T06:20:32;100206.75;;;16.60;60.75
29371;BME280;16357;52.188;7.838;2023-09-19T06:22:59;100202.59;;;16.64;60.73
29371;BME280;16357;52.188;7.838;2023-09-19T06:25:28;100198.22;;;16.70;60.43
29371;BME280;16357;52.188;7.838;2023-09-19T06:27:55;100203.59;;;16.77;60.23
29371;BME280;16357;52.188;7.838;2023-09-19T06:30:23;100203.41;;;16.85;60.37
29371;BME280;16357;52.188;7.838;2023-09-19T06:33:04;100186.75;;;16.95;60.50
29371;BME280;16357;52.188;7.838;2023-09-19T06:35:32;100187.34;;;17.03;59.90
29371;BME280;16357;52.188;7.838;2023-09-19T06:38:02;100193.16;;;17.14;59.58
29371;BME280;16357;52.188;7.838;2023-09-19T06:40:29;100192.91;;;17.22;59.97
29371;BME280;16357;52.188;7.838;2023-09-19T06:42:57;100197.25;;;17.29;59.29
29371;BME280;16357;52.188;7.838;2023-09-19T06:45:23;100209.75;;;17.37;59.16
29371;BME280;16357;52.188;7.838;2023-09-19T06:47:52;100213.28;;;17.44;58.56
29371;BME280;16357;52.188;7.838;2023-09-19T06:50:30;100211.59;;;17.50;58.73
29371;BME280;16357;52.188;7.838;2023-09-19T06:52:57;100226.41;;;17.54;58.33
29371;BME280;16357;52.188;7.838;2023-09-19T06:55:25;100215.94;;;17.58;57.98
29371;BME280;16357;52.188;7.838;2023-09-19T06:57:54;100223.63;;;17.61;57.89
29371;BME280;16357;52.188;7.838;2023-09-19T07:00:21;100236.19;;;17.62;57.79
29371;BME280;16357;52.188;7.838;2023-09-19T07:03:13;100234.06;;;17.64;57.75
29371;BME280;16357;52.188;7.838;2023-09-19T07:05:40;100244.91;;;17.64;57.40
29371;BME280;16357;52.188;7.838;2023-09-19T07:08:07;100241.38;;;17.63;57.71
29371;BME280;16357;52.188;7.838;2023-09-19T07:10:34;100244.91;;;17.64;57.15
29371;BME280;16357;52.188;7.838;2023-09-19T07:13:05;100244.72;;;17.65;57.54
29371;BME280;16357;52.188;7.838;2023-09-19T07:15:35;100238.44;;;17.65;57.27
29371;BME280;16357;52.188;7.838;2023-09-19T07:18:03;100250.97;;;17.66;57.70
29371;BME280;16357;52.188;7.838;2023-09-19T07:20:29;100246.97;;;17.68;57.65
29371;BME280;16357;52.188;7.838;2023-09-19T07:22:59;100244.66;;;17.72;58.07
29371;BME280;16357;52.188;7.838;2023-09-19T07:25:29;100257.59;;;17.76;58.28
29371;BME280;16357;52.188;7.838;2023-09-19T07:27:57;100245.94;;;17.83;58.28
29371;BME280;16357;52.188;7.838;2023-09-19T07:30:27;100255.06;;;17.88;58.04
29371;BME280;16357;52.188;7.838;2023-09-19T07:32:54;100254.00;;;17.96;58.12
29371;BME280;16357;52.188;7.838;2023-09-19T07:35:21;100251.22;;;18.03;57.87
29371;BME280;16357;52.188;7.838;2023-09-19T07:37:49;100247.63;;;18.09;57.99
29371;BME280;16357;52.188;7.838;2023-09-19T07:40:17;100227.53;;;18.16;57.60
29371;BME280;16357;52.188;7.838;2023-09-19T07:42:44;100236.72;;;18.22;57.42
29371;BME280;16357;52.188;7.838;2023-09-19T07:45:13;100235.84;;;18.28;57.56
29371;BME280;16357;52.188;7.838;2023-09-19T07:47:50;100237.66;;;18.34;57.24
29371;BME280;16357;52.188;7.838;2023-09-19T07:50:18;100241.63;;;18.38;57.21
29371;BME280;16357;52.188;7.838;2023-09-19T07:52:46;100240.09;;;18.42;57.03
29371;BME280;16357;52.188;7.838;2023-09-19T07:55:13;100246.78;;;18.47;56.87
29371;BME280;16357;52.188;7.838;2023-09-19T07:57:43;100253.41;;;18.51;56.63
29371;BME280;16357;52.188;7.838;2023-09-19T08:00:10;100241.50;;;18.52;56.70
29371;BME280;16357;52.188;7.838;2023-09-19T08:02:38;100249.22;;;18.55;56.62
29371;BME280;16357;52.188;7.838;2023-09-19T08:05:06;100248.78;;;18.58;56.76
29371;BME280;16357;52.188;7.838;2023-09-19T08:07:33;100255.44;;;18.62;56.58
29371;BME280;16357;52.188;7.838;2023-09-19T08:09:59;100248.50;;;18.66;56.72
29371;BME280;16357;52.188;7.838;2023-09-19T08:12:26;100245.13;;;18.71;56.65
29371;BME280;16357;52.188;7.838;2023-09-19T08:14:52;100250.75;;;18.76;56.56
29371;BME280;16357;52.188;7.838;2023-09-19T08:17:18;100255.28;;;18.82;56.43
29371;BME280;16357;52.188;7.838;2023-09-19T08:19:45;100253.56;;;18.88;56.52
29371;BME280;16357;52.188;7.838;2023-09-19T08:22:12;100255.41;;;18.94;56.26
29371;BME280;16357;52.188;7.838;2023-09-19T08:24:39;100269.75;;;19.01;56.22
29371;BME280;16357;52.188;7.838;2023-09-19T08:27:05;100250.66;;;19.07;56.09
29371;BME280;16357;52.188;7.838;2023-09-19T08:29:35;100261.50;;;19.14;56.60
29371;BME280;16357;52.188;7.838;2023-09-19T08:32:02;100267.66;;;19.21;55.94
29371;BME280;16357;52.188;7.838;2023-09-19T08:34:29;100262.19;;;19.28;56.02
29371;BME280;16357;52.188;7.838;2023-09-19T08:37:05;100265.41;;;19.37;56.01
29371;BME280;16357;52.188;7.838;2023-09-19T08:39:31;100264.50;;;19.43;55.88
29371;BME280;16357;52.188;7.838;2023-09-19T08:42:00;100269.88;;;19.49;56.04
29371;BME280;16357;52.188;7.838;2023-09-19T08:44:27;100275.03;;;19.58;56.14
29371;BME280;16357;52.188;7.838;2023-09-19T08:47:10;100260.28;;;19.65;55.54
29371;BME280;16357;52.188;7.838;2023-09-19T08:52:29;100267.84;;;19.82;55.48
29371;BME280;16357;52.188;7.838;2023-09-19T08:55:02;100259.22;;;19.85;55.03
29371;BME280;16357;52.188;7.838;2023-09-19T08:57:36;100262.69;;;19.92;54.79
29371;BME280;16357;52.188;7.838;2023-09-19T09:00:04;100265.56;;;19.97;54.64
29371;BME280;16357;52.188;7.838;2023-09-19T09:02:39;100265.69;;;20.02;53.76
29371;BME280;16357;52.188;7.838;2023-09-19T09:05:09;100261.44;;;20.06;54.11
29371;BME280;16357;52.188;7.838;2023-09-19T09:07:37;100254.25;;;20.12;54.46
29371;BME280;16357;52.188;7.838;2023-09-19T09:10:04;100256.28;;;20.16;53.80
29371;BME280;16357;52.188;7.838;2023-09-19T09:12:31;100272.19;;;20.20;53.47
29371;BME280;16357;52.188;7.838;2023-09-19T09:14:57;100264.59;;;20.22;52.87
29371;BME280;16357;52.188;7.838;2023-09-19T09:17:24;100262.47;;;20.24;53.49
29371;BME280;16357;52.188;7.838;2023-09-19T09:19:54;100269.13;;;20.28;53.43
29371;BME280;16357;52.188;7.838;2023-09-19T09:22:21;100268.66;;;20.31;52.87
29371;BME280;16357;52.188;7.838;2023-09-19T09:24:54;100273.16;;;20.37;52.74
29371;BME280;16357;52.188;7.838;2023-09-19T09:27:24;100266.19;;;20.41;52.36
29371;BME280;16357;52.188;7.838;2023-09-19T09:29:52;100267.16;;;20.47;52.82
29371;BME280;16357;52.188;7.838;2023-09-19T09:32:25;100247.13;;;20.53;52.27
29371;BME280;16357;52.188;7.838;2023-09-19T09:34:56;100262.81;;;20.57;52.52
29371;BME280;16357;52.188;7.838;2023-09-19T09:37:28;100257.50;;;20.63;51.98
29371;BME280;16357;52.188;7.838;2023-09-19T09:40:02;100253.81;;;20.69;52.24
29371;BME280;16357;52.188;7.838;2023-09-19T09:42:41;100246.84;;;20.73;51.53
29371;BME280;16357;52.188;7.838;2023-09-19T09:45:22;100251.97;;;20.81;52.29
29371;BME280;16357;52.188;7.838;2023-09-19T09:48:15;100258.13;;;20.88;51.46
29371;BME280;16357;52.188;7.838;2023-09-19T09:50:48;100256.09;;;20.95;51.24
29371;BME280;16357;52.188;7.838;2023-09-19T09:58:26;100252.91;;;21.10;50.49
29371;BME280;16357;52.188;7.838;2023-09-19T10:00:59;100259.31;;;21.16;50.51
29371;BME280;16357;52.188;7.838;2023-09-19T10:03:39;100263.78;;;21.22;50.51
29371;BME280;16357;52.188;7.838;2023-09-19T10:06:08;100270.22;;;21.27;50.50
29371;BME280;16357;52.188;7.838;2023-09-19T10:09:05;100266.88;;;21.37;50.34
29371;BME280;16357;52.188;7.838;2023-09-19T10:11:45;100258.00;;;21.42;50.34
29371;BME280;16357;52.188;7.838;2023-09-19T10:14:16;100261.44;;;21.49;50.68
29371;BME280;16357;52.188;7.838;2023-09-19T10:16:47;100253.09;;;21.56;50.42
29371;BME280;16357;52.188;7.838;2023-09-19T10:19:19;100254.88;;;21.62;49.90
29371;BME280;16357;52.188;7.838;2023-09-19T10:21:54;100254.50;;;21.70;50.31
29371;BME280;16357;52.188;7.838;2023-09-19T10:24:21;100250.78;;;21.76;49.35
29371;BME280;16357;52.188;7.838;2023-09-19T10:26:49;100242.13;;;21.79;48.81
29371;BME280;16357;52.188;7.838;2023-09-19T10:29:17;100251.50;;;21.83;48.48
29371;BME280;16357;52.188;7.838;2023-09-19T10:31:47;100243.91;;;21.85;48.37
29371;BME280;16357;52.188;7.838;2023-09-19T10:34:15;100242.81;;;21.86;48.62
29371;BME280;16357;52.188;7.838;2023-09-19T10:36:44;100240.69;;;21.88;48.29
29371;BME280;16357;52.188;7.838;2023-09-19T10:39:15;100249.69;;;21.89;48.35
29371;BME280;16357;52.188;7.838;2023-09-19T10:41:53;100246.25;;;21.94;48.96
29371;BME280;16357;52.188;7.838;2023-09-19T10:44:23;100250.94;;;21.98;48.67
29371;BME280;16357;52.188;7.838;2023-09-19T10:46:52;100257.09;;;22.05;48.51
29371;BME280;16357;52.188;7.838;2023-09-19T10:49:20;100245.44;;;22.10;47.77
29371;BME280;16357;52.188;7.838;2023-09-19T10:51:51;100247.44;;;22.14;47.56
29371;BME280;16357;52.188;7.838;2023-09-19T10:54:22;100239.59;;;22.18;47.64
29371;BME280;16357;52.188;7.838;2023-09-19T10:56:53;100233.66;;;22.21;47.94
29371;BME280;16357;52.188;7.838;2023-09-19T10:59:21;100233.16;;;22.24;47.97
29371;BME280;16357;52.188;7.838;2023-09-19T11:01:55;100239.53;;;22.30;48.35
29371;BME280;16357;52.188;7.838;2023-09-19T11:04:31;100242.13;;;22.37;48.17
29371;BME280;16357;52.188;7.838;2023-09-19T11:07:14;100245.53;;;22.44;48.02
29371;BME280;16357;52.188;7.838;2023-09-19T11:09:45;100240.72;;;22.51;48.14
29371;BME280;16357;52.188;7.838;2023-09-19T11:15:02;100240.97;;;22.66;47.12
29371;BME280;16357;52.188;7.838;2023-09-19T11:17:38;100241.66;;;22.73;47.26
29371;BME280;16357;52.188;7.838;2023-09-19T11:30:33;100249.91;;;22.95;45.86
29371;BME280;16357;52.188;7.838;2023-09-19T11:33:21;100239.34;;;22.99;46.08
29371;BME280;16357;52.188;7.838;2023-09-19T11:36:05;100245.63;;;22.99;45.06
29371;BME280;16357;52.188;7.838;2023-09-19T11:46:31;100223.88;;;22.93;44.33
29371;BME280;16357;52.188;7.838;2023-09-19T11:49:08;100223.88;;;22.93;44.66
29371;BME280;16357;52.188;7.838;2023-09-19T11:51:43;100222.25;;;22.92;44.61
29371;BME280;16357;52.188;7.838;2023-09-19T11:54:11;100218.91;;;22.90;44.87
29371;BME280;16357;52.188;7.838;2023-09-19T11:56:45;100224.16;;;22.91;45.19
29371;BME280;16357;52.188;7.838;2023-09-19T11:59:23;100219.25;;;22.93;45.01
29371;BME280;16357;52.188;7.838;2023-09-19T12:01:51;100219.63;;;22.97;45.29
29371;BME280;16357;52.188;7.838;2023-09-19T12:04:38;100212.31;;;23.03;44.88
29371;BME280;16357;52.188;7.838;2023-09-19T12:09:47;100214.53;;;23.06;43.41
29371;BME280;16357;52.188;7.838;2023-09-19T12:12:22;100209.88;;;23.06;43.93
29371;BME280;16357;52.188;7.838;2023-09-19T12:14:50;100210.72;;;23.07;44.03
29371;BME280;16357;52.188;7.838;2023-09-19T12:17:20;100195.72;;;23.09;43.64
29371;BME280;16357;52.188;7.838;2023-09-19T12:19:51;100206.16;;;23.12;44.74
29371;BME280;16357;52.188;7.838;2023-09-19T12:22:18;100202.91;;;23.15;44.27
29371;BME280;16357;52.188;7.838;2023-09-19T12:24:47;100202.41;;;23.18;43.42
29371;BME280;16357;52.188;7.838;2023-09-19T12:27:15;100193.69;;;23.21;43.87
29371;BME280;16357;52.188;7.838;2023-09-19T12:29:48;100201.38;;;23.25;43.24
29371;BME280;16357;52.188;7.838;2023-09-19T12:32:15;100192.91;;;23.26;42.89
29371;BME280;16357;52.188;7.838;2023-09-19T12:34:52;100191.59;;;23.29;43.45
29371;BME280;16357;52.188;7.838;2023-09-19T12:37:21;100194.91;;;23.31;43.17
29371;BME280;16357;52.188;7.838;2023-09-19T12:39:51;100186.19;;;23.34;43.23
29371;BME280;16357;52.188;7.838;2023-09-19T12:42:21;100188.66;;;23.35;43.18
29371;BME280;16357;52.188;7.838;2023-09-19T12:44:50;100182.69;;;23.38;43.06
29371;BME280;16357;52.188;7.838;2023-09-19T12:47:23;100163.81;;;23.42;42.89
29371;BME280;16357;52.188;7.838;2023-09-19T12:50:10;100162.78;;;23.48;43.73
29371;BME280;16357;52.188;7.838;2023-09-19T12:52:49;100172.97;;;23.53;43.19
29371;BME280;16357;52.188;7.838;2023-09-19T12:55:23;100172.81;;;23.59;43.58
29371;BME280;16357;52.188;7.838;2023-09-19T12:58:07;100175.91;;;23.68;43.55
29371;BME280;16357;52.188;7.838;2023-09-19T13:06:03;100177.50;;;23.86;42.02
29371;BME280;16357;52.188;7.838;2023-09-19T13:08:40;100189.84;;;23.88;42.75
29371;BME280;16357;52.188;7.838;2023-09-19T13:11:12;100178.63;;;23.90;42.48
29371;BME280;16357;52.188;7.838;2023-09-19T13:13:44;100181.13;;;23.92;42.57
29371;BME280;16357;52.188;7.838;2023-09-19T13:16:16;100169.34;;;23.91;42.47
29371;BME280;16357;52.188;7.838;2023-09-19T13:18:50;100190.16;;;23.92;42.84
29371;BME280;16357;52.188;7.838;2023-09-19T13:21:33;100174.28;;;23.94;43.04
29371;BME280;16357;52.188;7.838;2023-09-19T13:24:20;100172.38;;;23.95;43.19
29371;BME280;16357;52.188;7.838;2023-09-19T13:26:47;100168.81;;;23.94;42.26
29371;BME280;16357;52.188;7.838;2023-09-19T13:29:13;100159.78;;;23.94;42.16
29371;BME280;16357;52.188;7.838;2023-09-19T13:31:51;100170.97;;;23.92;42.39
29371;BME280;16357;52.188;7.838;2023-09-19T13:34:19;100168.75;;;23.89;42.13
29371;BME280;16357;52.188;7.838;2023-09-19T13:36:47;100156.66;;;23.85;41.88
29371;BME280;16357;52.188;7.838;2023-09-19T13:39:18;100169.22;;;23.81;42.03
29371;BME280;16357;52.188;7.838;2023-09-19T13:41:46;100188.34;;;23.76;41.99
29371;BME280;16357;52.188;7.838;2023-09-19T13:44:14;100173.50;;;23.72;42.18
29371;BME280;16357;52.188;7.838;2023-09-19T13:46:40;100164.13;;;23.67;41.73